Time;durP1;ratioP1;P1;durP2;ratioP2;P2;SDS_P1;SDS_P2;PMS_P1;PMS_P2;Temp;Humidity;BMP_temperature;BMP_pressure;BME280_temperature;BME280_humidity;BME280_pressure;Samples;Min_cycle;Max_cycle;Signal;HPM_P1;HPM_P2
2024/01/03 00:01:17;;;;;;;2.73;1.20;;;11.20;99.90;;;;;;5013883;28;20482;-66
2024/01/03 00:03:42;;;;;;;3.17;1.20;;;11.20;99.90;;;;;;5011438;28;20303;-66
2024/01/03 00:06:08;;;;;;;2.30;1.23;;;11.20;99.90;;;;;;5008695;28;20426;-66
2024/01/03 00:08:38;;;;;;;2.23;1.30;;;11.30;99.90;;;;;;5014035;28;20232;-66
2024/01/03 00:11:04;;;;;;;2.10;1.10;;;11.30;99.90;;;;;;5018885;28;20434;-67
2024/01/03 00:13:29;;;;;;;2.37;1.30;;;11.30;99.90;;;;;;5017252;28;20489;-67
2024/01/03 00:16:18;;;;;;;3.27;1.40;;;11.30;99.90;;;;;;5016205;28;20455;-68
2024/01/03 00:18:54;;;;;;;2.10;1.20;;;11.30;99.90;;;;;;5016263;28;20185;-67
2024/01/03 00:21:25;;;;;;;2.57;1.30;;;11.20;99.90;;;;;;5022825;28;20426;-67
2024/01/03 00:23:55;;;;;;;2.27;1.30;;;11.20;99.90;;;;;;5020607;28;20506;-67
2024/01/03 00:26:23;;;;;;;2.30;1.37;;;11.20;99.90;;;;;;5019946;28;20423;-67
2024/01/03 00:28:48;;;;;;;2.33;1.30;;;11.20;99.90;;;;;;5014293;28;20443;-67
2024/01/03 00:31:38;;;;;;;2.23;1.43;;;11.20;99.90;;;;;;5023627;28;20435;-67
2024/01/03 00:34:24;;;;;;;3.60;1.50;;;11.20;99.90;;;;;;5016797;28;20294;-67
2024/01/03 00:36:53;;;;;;;2.60;1.40;;;11.20;99.90;;;;;;5025727;28;20810;-67
2024/01/03 00:39:33;;;;;;;3.80;1.73;;;11.20;99.90;;;;;;5026950;28;20428;-68
2024/01/03 00:41:59;;;;;;;6.00;1.40;;;11.20;99.90;;;;;;5026895;28;20434;-68
2024/01/03 00:44:25;;;;;;;3.87;1.53;;;11.30;99.90;;;;;;5019009;28;21008;-68
2024/01/03 00:46:53;;;;;;;3.17;1.30;;;11.30;99.90;;;;;;5023488;28;20459;-67
2024/01/03 00:49:19;;;;;;;4.30;1.50;;;11.20;99.90;;;;;;5028357;28;20579;-68
2024/01/03 00:51:47;;;;;;;3.20;1.33;;;11.30;99.90;;;;;;5020216;28;20425;-68
2024/01/03 00:54:14;;;;;;;4.33;1.40;;;11.20;99.90;;;;;;5013277;28;20498;-67
2024/01/03 00:56:40;;;;;;;2.50;1.60;;;11.30;99.90;;;;;;5026779;28;20880;-67
2024/01/03 00:59:06;;;;;;;4.00;1.63;;;11.30;99.90;;;;;;5027931;28;20459;-67
2024/01/03 01:01:32;;;;;;;5.10;2.20;;;11.30;99.90;;;;;;5027668;28;20410;-67
2024/01/03 01:03:57;;;;;;;5.13;1.60;;;11.30;99.90;;;;;;5030123;28;20963;-67
2024/01/03 01:06:23;;;;;;;6.57;1.83;;;11.30;99.90;;;;;;5018290;28;20188;-67
2024/01/03 01:08:49;;;;;;;3.27;1.90;;;11.40;99.90;;;;;;5014600;28;20222;-66
2024/01/03 01:11:15;;;;;;;3.30;1.50;;;11.40;99.90;;;;;;5023689;28;20184;-67
2024/01/03 01:13:40;;;;;;;4.90;1.43;;;11.40;99.90;;;;;;5016497;28;20461;-66
2024/01/03 01:16:06;;;;;;;3.90;1.50;;;11.50;99.90;;;;;;5014275;28;20185;-67
2024/01/03 01:18:31;;;;;;;8.10;1.90;;;11.50;99.90;;;;;;5012828;28;20235;-67
2024/01/03 01:20:57;;;;;;;2.47;1.47;;;11.50;99.90;;;;;;5016905;28;20219;-67
2024/01/03 01:23:22;;;;;;;7.10;1.80;;;11.50;99.90;;;;;;5020275;28;20212;-66
2024/01/03 01:25:48;;;;;;;3.70;1.60;;;11.50;99.90;;;;;;5017779;28;20227;-67
2024/01/03 01:28:14;;;;;;;2.80;1.40;;;11.50;99.90;;;;;;5022146;28;20185;-66
2024/01/03 01:30:39;;;;;;;5.80;2.17;;;11.50;99.90;;;;;;5023085;28;20192;-66
2024/01/03 01:33:05;;;;;;;6.37;1.30;;;11.60;99.90;;;;;;5024908;28;20223;-67
2024/01/03 01:35:31;;;;;;;3.83;1.70;;;11.60;99.90;;;;;;5023580;28;20435;-67
2024/01/03 01:37:56;;;;;;;5.30;1.50;;;11.50;99.90;;;;;;5019504;28;20187;-67
2024/01/03 01:40:22;;;;;;;4.20;1.73;;;11.50;99.90;;;;;;5019314;28;20182;-67
2024/01/03 01:42:47;;;;;;;3.77;1.50;;;11.50;99.90;;;;;;5012432;28;20307;-66
2024/01/03 01:45:13;;;;;;;2.77;1.40;;;11.50;99.90;;;;;;5005146;28;20185;-66
2024/01/03 01:47:41;;;;;;;3.13;1.60;;;11.50;99.90;;;;;;5018058;28;20202;-66
2024/01/03 01:50:08;;;;;;;5.10;1.43;;;11.50;99.90;;;;;;5022307;28;20545;-66
2024/01/03 01:52:34;;;;;;;2.83;1.30;;;11.50;99.90;;;;;;5009424;28;20550;-67
2024/01/03 01:55:00;;;;;;;5.17;2.20;;;11.40;99.90;;;;;;5017131;28;20882;-67
2024/01/03 01:57:29;;;;;;;5.97;1.87;;;11.30;99.90;;;;;;5009327;28;20432;-67
2024/01/03 01:59:55;;;;;;;3.27;1.60;;;11.30;99.90;;;;;;5014966;28;20242;-67
2024/01/03 02:02:21;;;;;;;5.20;2.17;;;11.30;99.90;;;;;;5014666;28;20617;-67
2024/01/03 02:04:46;;;;;;;2.80;1.50;;;11.40;99.90;;;;;;5014646;28;20549;-67
2024/01/03 02:07:12;;;;;;;2.57;1.30;;;11.30;99.90;;;;;;5019159;28;20571;-66
2024/01/03 02:09:38;;;;;;;2.40;1.20;;;11.30;99.90;;;;;;5015326;28;20700;-66
2024/01/03 02:12:04;;;;;;;3.60;1.33;;;11.30;99.90;;;;;;5030174;28;20181;-67
2024/01/03 02:14:29;;;;;;;2.20;1.20;;;11.20;99.90;;;;;;5028546;28;20226;-67
2024/01/03 02:16:55;;;;;;;3.80;1.40;;;11.30;99.90;;;;;;5024715;28;20445;-66
2024/01/03 02:19:20;;;;;;;3.53;1.40;;;11.20;99.90;;;;;;5015383;28;20554;-67
2024/01/03 02:21:46;;;;;;;3.53;1.50;;;11.30;99.90;;;;;;5015183;28;20228;-67
2024/01/03 02:24:11;;;;;;;2.93;1.70;;;11.30;99.90;;;;;;5017901;28;20284;-67
2024/01/03 02:26:37;;;;;;;2.10;1.27;;;11.30;99.90;;;;;;5017565;28;20313;-67
2024/01/03 02:29:02;;;;;;;9.97;2.83;;;11.30;99.90;;;;;;5013131;28;20192;-67
2024/01/03 02:31:28;;;;;;;2.77;1.40;;;11.30;99.90;;;;;;5013872;28;20254;-67
2024/01/03 02:33:53;;;;;;;2.10;1.10;;;11.30;99.90;;;;;;5022932;28;20235;-67
2024/01/03 02:36:20;;;;;;;2.77;1.37;;;11.30;99.90;;;;;;5020776;28;20195;-67
2024/01/03 02:38:50;;;;;;;2.30;1.40;;;11.30;99.90;;;;;;5017865;28;20227;-67
2024/01/03 02:41:15;;;;;;;5.37;1.70;;;11.30;99.90;;;;;;5017391;28;20423;-67
2024/01/03 02:43:41;;;;;;;4.10;1.57;;;11.20;99.90;;;;;;5012672;28;20445;-67
2024/01/03 02:46:06;;;;;;;2.63;1.30;;;11.20;99.90;;;;;;5018063;28;20180;-67
2024/01/03 02:48:32;;;;;;;2.83;1.60;;;11.20;99.90;;;;;;5010628;28;20185;-66
2024/01/03 02:50:57;;;;;;;2.43;1.50;;;11.20;99.90;;;;;;5018826;28;20756;-66
2024/01/03 02:53:23;;;;;;;2.60;1.40;;;11.20;99.90;;;;;;5015555;28;20591;-67
2024/01/03 02:55:48;;;;;;;8.60;1.67;;;11.20;99.90;;;;;;5017786;28;20247;-67
2024/01/03 02:58:14;;;;;;;3.30;1.50;;;11.10;99.90;;;;;;5016041;28;20264;-67
2024/01/03 03:00:40;;;;;;;3.20;1.33;;;11.10;99.90;;;;;;5019067;28;20374;-67
2024/01/03 03:03:06;;;;;;;2.70;1.30;;;11.20;99.90;;;;;;5023254;28;20283;-66
2024/01/03 03:05:32;;;;;;;3.20;1.57;;;11.20;99.90;;;;;;5018469;28;20511;-67
2024/01/03 03:07:57;;;;;;;6.90;1.40;;;11.20;99.90;;;;;;5013608;28;20192;-66
2024/01/03 03:10:23;;;;;;;2.87;1.70;;;11.20;99.90;;;;;;5011468;28;20195;-67
2024/01/03 03:12:48;;;;;;;3.80;1.50;;;11.20;99.90;;;;;;5008907;28;20691;-67
2024/01/03 03:15:14;;;;;;;3.13;1.70;;;11.20;99.90;;;;;;5015492;28;20546;-67
2024/01/03 03:17:41;;;;;;;2.40;1.40;;;11.20;99.90;;;;;;5014010;28;20184;-67
2024/01/03 03:20:06;;;;;;;2.20;1.30;;;11.20;99.90;;;;;;5017097;28;20169;-68
2024/01/03 03:22:32;;;;;;;3.00;1.87;;;11.30;99.90;;;;;;5021997;28;21094;-68
2024/01/03 03:24:58;;;;;;;5.70;1.67;;;11.30;99.90;;;;;;5017928;28;20431;-68
2024/01/03 03:27:24;;;;;;;5.03;1.83;;;11.30;99.90;;;;;;5012970;28;20904;-68
2024/01/03 03:29:50;;;;;;;3.20;1.40;;;11.30;99.90;;;;;;5012300;28;20191;-68
2024/01/03 03:32:16;;;;;;;2.87;1.43;;;11.40;99.90;;;;;;5016152;28;21089;-68
2024/01/03 03:34:41;;;;;;;3.73;1.50;;;11.30;99.90;;;;;;5019761;28;20527;-68
2024/01/03 03:37:07;;;;;;;4.47;1.60;;;11.30;99.90;;;;;;5018441;28;20407;-68
2024/01/03 03:39:32;;;;;;;3.97;2.00;;;11.30;99.90;;;;;;5019152;28;20208;-66
2024/01/03 03:41:58;;;;;;;2.43;1.60;;;11.30;99.90;;;;;;5015431;28;20257;-66
2024/01/03 03:44:24;;;;;;;3.50;1.70;;;11.30;99.90;;;;;;5011899;28;20205;-66
2024/01/03 03:46:52;;;;;;;2.70;1.70;;;11.30;99.90;;;;;;5020246;28;20191;-67
2024/01/03 03:49:18;;;;;;;3.07;1.80;;;11.20;99.90;;;;;;5016944;28;20193;-66
2024/01/03 03:51:43;;;;;;;3.40;1.50;;;11.30;99.90;;;;;;5017473;28;20416;-67
2024/01/03 03:54:09;;;;;;;2.73;1.43;;;11.20;99.90;;;;;;5018530;28;20243;-67
2024/01/03 03:56:35;;;;;;;2.50;1.50;;;11.20;99.90;;;;;;5013378;28;20189;-67
2024/01/03 03:59:00;;;;;;;3.00;1.67;;;11.30;99.90;;;;;;5013119;28;20605;-67
2024/01/03 04:01:26;;;;;;;3.50;1.70;;;11.20;99.90;;;;;;5012376;28;20419;-67
2024/01/03 04:03:52;;;;;;;6.17;1.87;;;11.20;99.90;;;;;;5010575;28;20710;-67
2024/01/03 04:06:17;;;;;;;4.50;1.83;;;11.20;99.90;;;;;;5019307;28;20549;-66
2024/01/03 04:08:44;;;;;;;3.37;1.40;;;11.20;99.90;;;;;;5018481;28;20572;-67
2024/01/03 04:11:10;;;;;;;5.60;1.93;;;11.20;99.90;;;;;;5017296;28;20188;-66
2024/01/03 04:13:38;;;;;;;5.23;1.80;;;11.30;99.90;;;;;;5014607;28;20610;-67
2024/01/03 04:16:07;;;;;;;3.13;1.47;;;11.30;99.90;;;;;;5022622;28;20521;-67
2024/01/03 04:18:34;;;;;;;2.60;1.30;;;11.40;99.90;;;;;;5023007;28;20428;-67
2024/01/03 04:21:00;;;;;;;4.40;1.77;;;11.30;99.90;;;;;;5029622;28;20868;-67
2024/01/03 04:23:26;;;;;;;7.10;1.80;;;11.30;99.90;;;;;;5031840;28;20452;-66
2024/01/03 04:25:51;;;;;;;4.70;1.77;;;11.30;99.90;;;;;;5034261;28;20415;-67
2024/01/03 04:28:17;;;;;;;3.20;1.30;;;11.30;99.90;;;;;;5024682;28;20188;-67
2024/01/03 04:30:42;;;;;;;5.10;1.70;;;11.30;99.90;;;;;;5015194;28;20206;-67
2024/01/03 04:33:08;;;;;;;3.30;1.60;;;11.30;99.90;;;;;;5024153;28;20329;-67
2024/01/03 04:35:33;;;;;;;3.60;1.30;;;11.40;99.90;;;;;;5027834;28;20190;-67
2024/01/03 04:38:02;;;;;;;3.50;1.80;;;11.40;99.90;;;;;;5025201;28;20215;-67
2024/01/03 04:40:32;;;;;;;6.80;1.67;;;11.40;99.90;;;;;;5024256;28;20169;-67
2024/01/03 04:42:58;;;;;;;10.30;1.80;;;11.40;99.90;;;;;;5025860;28;20498;-67
2024/01/03 04:45:23;;;;;;;5.30;1.97;;;11.40;99.90;;;;;;5026855;28;22308;-67
2024/01/03 04:47:49;;;;;;;6.10;1.90;;;11.50;99.90;;;;;;5023439;28;20456;-67
2024/01/03 04:50:14;;;;;;;3.70;1.47;;;11.50;99.90;;;;;;5027610;28;20181;-67
2024/01/03 04:52:40;;;;;;;6.30;1.90;;;11.50;99.90;;;;;;5020507;28;20215;-67
2024/01/03 04:55:06;;;;;;;5.63;1.80;;;11.50;99.90;;;;;;5019706;28;20440;-67
2024/01/03 04:57:35;;;;;;;6.77;2.13;;;11.50;99.90;;;;;;5018607;28;20199;-66
2024/01/03 05:00:02;;;;;;;2.83;1.60;;;11.50;99.90;;;;;;5019545;28;20848;-66
2024/01/03 05:02:27;;;;;;;6.67;1.50;;;11.50;99.90;;;;;;5017868;28;20442;-66
2024/01/03 05:04:53;;;;;;;3.30;1.63;;;11.50;99.90;;;;;;5024661;28;20513;-66
2024/01/03 05:07:18;;;;;;;6.70;2.30;;;11.60;99.90;;;;;;5015826;28;20909;-66
2024/01/03 05:09:44;;;;;;;7.00;1.80;;;11.50;99.90;;;;;;5017442;28;20273;-67
2024/01/03 05:12:10;;;;;;;5.77;2.00;;;11.50;99.90;;;;;;5015776;28;20530;-67
2024/01/03 05:14:36;;;;;;;3.13;1.33;;;11.50;99.90;;;;;;5020399;28;20212;-66
2024/01/03 05:17:02;;;;;;;2.83;1.33;;;11.50;99.90;;;;;;5018956;28;20478;-67
2024/01/03 05:19:27;;;;;;;3.87;1.67;;;11.50;99.90;;;;;;5016105;28;20237;-66
2024/01/03 05:21:53;;;;;;;5.00;1.80;;;11.50;99.90;;;;;;5014070;28;20184;-66
2024/01/03 05:24:19;;;;;;;4.10;1.60;;;11.50;99.90;;;;;;5016032;28;20248;-67
2024/01/03 05:26:45;;;;;;;3.40;1.67;;;11.50;99.90;;;;;;5016723;28;20177;-67
2024/01/03 05:29:11;;;;;;;4.73;2.33;;;11.50;99.90;;;;;;5029388;28;20426;-66
2024/01/03 05:31:36;;;;;;;3.07;1.60;;;11.50;99.90;;;;;;5021660;28;20667;-67
2024/01/03 05:34:02;;;;;;;4.10;2.00;;;11.50;99.90;;;;;;5027736;28;20207;-67
2024/01/03 05:36:27;;;;;;;3.43;1.60;;;11.50;99.90;;;;;;5022573;28;20695;-66
2024/01/03 05:38:53;;;;;;;6.77;1.50;;;11.40;99.90;;;;;;5024381;28;20664;-67
2024/01/03 05:41:18;;;;;;;5.17;1.50;;;11.50;99.90;;;;;;5021276;28;20223;-67
2024/01/03 05:43:44;;;;;;;4.43;1.67;;;11.50;99.90;;;;;;5023932;28;20205;-67
2024/01/03 05:46:10;;;;;;;4.30;1.50;;;11.50;99.90;;;;;;5021681;28;20178;-67
2024/01/03 05:48:36;;;;;;;7.20;1.80;;;11.60;99.90;;;;;;5018173;28;20943;-67
2024/01/03 05:51:02;;;;;;;6.37;2.30;;;11.60;99.90;;;;;;5019215;28;20185;-67
2024/01/03 05:53:28;;;;;;;5.40;1.93;;;11.60;99.90;;;;;;5022266;28;20333;-67
2024/01/03 05:55:53;;;;;;;8.50;2.00;;;11.60;99.90;;;;;;5029326;28;20427;-67
2024/01/03 05:58:19;;;;;;;4.63;1.77;;;11.60;99.90;;;;;;5023894;28;20711;-67
2024/01/03 06:00:44;;;;;;;6.03;2.10;;;11.70;99.90;;;;;;5015969;28;20207;-67
2024/01/03 06:03:10;;;;;;;10.30;1.83;;;11.70;99.90;;;;;;5020834;28;20208;-67
2024/01/03 06:05:35;;;;;;;3.53;1.50;;;11.70;99.90;;;;;;5016231;28;20614;-67
2024/01/03 06:08:01;;;;;;;2.80;1.40;;;11.70;99.90;;;;;;5021342;28;20202;-67
2024/01/03 06:10:26;;;;;;;7.33;1.80;;;11.70;99.90;;;;;;5015313;28;20188;-66
2024/01/03 06:12:52;;;;;;;5.20;1.73;;;11.70;99.90;;;;;;5015961;28;20200;-66
2024/01/03 06:15:17;;;;;;;4.47;1.50;;;11.60;99.90;;;;;;5014468;28;20239;-66
2024/01/03 06:17:43;;;;;;;5.40;1.80;;;11.70;99.90;;;;;;5021489;28;20191;-66
2024/01/03 06:20:09;;;;;;;4.27;1.40;;;11.70;99.90;;;;;;5019403;28;20220;-66
2024/01/03 06:22:34;;;;;;;9.20;2.00;;;11.70;99.90;;;;;;5009281;28;20597;-66
2024/01/03 06:25:00;;;;;;;4.60;2.10;;;11.70;99.90;;;;;;5029297;28;20492;-66
2024/01/03 06:27:25;;;;;;;3.70;1.70;;;11.60;99.90;;;;;;5027576;28;20188;-67
2024/01/03 06:29:51;;;;;;;4.60;1.60;;;11.70;99.90;;;;;;5027086;28;20976;-67
2024/01/03 06:32:17;;;;;;;4.10;1.50;;;11.70;99.90;;;;;;5029116;28;20192;-67
2024/01/03 06:34:42;;;;;;;5.47;1.50;;;11.80;99.90;;;;;;5018968;28;20291;-67
2024/01/03 06:37:08;;;;;;;8.13;2.40;;;11.80;99.90;;;;;;5018499;28;20188;-67
2024/01/03 06:39:33;;;;;;;4.90;1.50;;;11.70;99.90;;;;;;5017661;28;20667;-68
2024/01/03 06:41:59;;;;;;;3.70;1.43;;;11.70;99.90;;;;;;5013529;28;20595;-67
2024/01/03 06:44:25;;;;;;;4.20;1.60;;;11.70;99.90;;;;;;5010458;28;20205;-67
2024/01/03 06:46:51;;;;;;;5.10;1.50;;;11.70;99.90;;;;;;5016946;28;20430;-67
2024/01/03 06:49:17;;;;;;;2.83;1.50;;;11.70;99.90;;;;;;5018992;28;20434;-66
2024/01/03 06:51:44;;;;;;;3.43;1.73;;;11.70;99.90;;;;;;5020414;28;20694;-67
2024/01/03 06:54:09;;;;;;;3.83;1.80;;;11.70;99.90;;;;;;5014884;28;20487;-67
2024/01/03 06:56:35;;;;;;;3.30;1.80;;;11.70;99.90;;;;;;5011228;28;20497;-67
2024/01/03 06:59:00;;;;;;;5.50;2.03;;;11.80;99.90;;;;;;5019081;28;20642;-67
2024/01/03 07:01:26;;;;;;;5.67;2.33;;;11.70;99.90;;;;;;5020601;28;20710;-67
2024/01/03 07:03:52;;;;;;;3.30;1.67;;;11.70;99.90;;;;;;5020307;28;20311;-66
2024/01/03 07:06:17;;;;;;;2.90;1.47;;;11.70;99.90;;;;;;5017066;28;20690;-66
2024/01/03 07:08:43;;;;;;;4.27;1.53;;;11.60;99.90;;;;;;5018230;28;20257;-68
2024/01/03 07:11:09;;;;;;;8.00;1.77;;;11.50;99.90;;;;;;5019468;28;20642;-66
2024/01/03 07:13:35;;;;;;;2.57;1.27;;;11.50;99.90;;;;;;5011142;28;20250;-67
2024/01/03 07:16:00;;;;;;;4.50;1.77;;;11.50;99.90;;;;;;5014353;28;20805;-67
2024/01/03 07:18:26;;;;;;;2.30;1.47;;;11.60;99.90;;;;;;5016156;28;20196;-67
2024/01/03 07:20:51;;;;;;;5.43;1.77;;;11.50;99.90;;;;;;5015616;28;20275;-67
2024/01/03 07:23:17;;;;;;;3.37;1.50;;;11.50;99.90;;;;;;5022042;28;20892;-67
2024/01/03 07:25:43;;;;;;;7.00;1.77;;;11.50;99.90;;;;;;5015262;28;20217;-67
2024/01/03 07:28:08;;;;;;;3.70;1.60;;;11.50;99.90;;;;;;5018578;28;20196;-67
2024/01/03 07:30:35;;;;;;;4.63;1.93;;;11.50;99.90;;;;;;5020055;28;20192;-67
2024/01/03 07:33:00;;;;;;;5.83;2.20;;;11.60;99.90;;;;;;5015659;28;20195;-67
2024/01/03 07:35:26;;;;;;;5.57;1.70;;;11.70;99.90;;;;;;5018814;28;20942;-67
2024/01/03 07:37:52;;;;;;;2.80;1.50;;;11.70;99.90;;;;;;5014937;28;20189;-67
2024/01/03 07:40:17;;;;;;;6.57;1.90;;;11.80;99.90;;;;;;5011333;28;20193;-67
2024/01/03 07:42:43;;;;;;;3.57;2.13;;;11.70;99.90;;;;;;5013431;28;20594;-67
2024/01/03 07:45:09;;;;;;;5.33;1.80;;;11.70;99.90;;;;;;5016887;28;20263;-67
2024/01/03 07:47:34;;;;;;;5.40;2.40;;;11.70;99.90;;;;;;5013924;28;20193;-67
2024/01/03 07:50:00;;;;;;;6.80;2.43;;;11.70;99.90;;;;;;5013454;28;20303;-67
2024/01/03 07:52:26;;;;;;;10.47;2.20;;;11.70;99.90;;;;;;5012812;28;20185;-67
2024/01/03 07:54:52;;;;;;;6.90;1.80;;;11.80;99.90;;;;;;5019181;28;20224;-67
2024/01/03 07:57:17;;;;;;;3.50;1.90;;;11.80;99.90;;;;;;5017296;28;20458;-67
2024/01/03 07:59:45;;;;;;;5.60;1.77;;;11.90;99.90;;;;;;5018930;28;20278;-67
2024/01/03 08:02:12;;;;;;;7.70;2.90;;;11.90;99.90;;;;;;5018520;28;20204;-67
2024/01/03 08:04:38;;;;;;;5.03;1.63;;;11.90;99.90;;;;;;5012516;28;20530;-67
2024/01/03 08:07:04;;;;;;;6.70;1.60;;;11.90;99.90;;;;;;5015343;28;21173;-67
2024/01/03 08:09:30;;;;;;;5.87;1.83;;;11.90;99.90;;;;;;5018414;28;20434;-67
2024/01/03 08:11:56;;;;;;;6.20;1.63;;;11.90;99.90;;;;;;5014714;28;20231;-67
2024/01/03 08:14:21;;;;;;;4.00;1.40;;;11.90;99.90;;;;;;5017231;28;20843;-67
2024/01/03 08:16:47;;;;;;;5.60;1.90;;;12.00;99.90;;;;;;5016216;28;20184;-67
2024/01/03 08:19:12;;;;;;;4.17;1.80;;;12.00;99.90;;;;;;5019490;28;20177;-67
2024/01/03 08:21:38;;;;;;;5.73;1.97;;;11.90;99.90;;;;;;5014518;28;20288;-67
2024/01/03 08:24:04;;;;;;;4.13;1.80;;;11.90;99.90;;;;;;5015353;28;20215;-67
2024/01/03 08:26:31;;;;;;;7.00;3.13;;;11.90;99.90;;;;;;5022594;28;20286;-67
2024/01/03 08:28:56;;;;;;;7.20;3.93;;;11.90;99.90;;;;;;5016381;28;20176;-67
2024/01/03 08:31:22;;;;;;;6.73;2.27;;;11.90;99.90;;;;;;5016883;28;20975;-67
2024/01/03 08:33:48;;;;;;;3.50;1.60;;;12.00;99.90;;;;;;5013902;28;20260;-67
2024/01/03 08:36:14;;;;;;;5.20;1.53;;;12.00;99.90;;;;;;5017423;28;20204;-67
2024/01/03 08:38:41;;;;;;;6.03;1.67;;;12.00;99.90;;;;;;5014790;28;20246;-67
2024/01/03 08:41:17;;;;;;;5.00;1.60;;;12.00;99.90;;;;;;5010357;28;20427;-67
2024/01/03 08:43:44;;;;;;;3.70;1.47;;;12.00;99.90;;;;;;5010471;28;20438;-67
2024/01/03 08:46:10;;;;;;;4.80;1.70;;;12.10;99.90;;;;;;5008639;28;21197;-67
2024/01/03 08:48:39;;;;;;;3.40;1.60;;;12.10;99.90;;;;;;5011018;28;20502;-67
2024/01/03 08:51:09;;;;;;;4.40;1.40;;;12.10;99.90;;;;;;5015140;28;20184;-67
2024/01/03 08:53:35;;;;;;;5.67;1.50;;;12.10;99.90;;;;;;5017542;28;20467;-67
2024/01/03 08:56:04;;;;;;;4.40;1.50;;;12.20;99.90;;;;;;5014950;28;20427;-67
2024/01/03 08:58:30;;;;;;;5.57;1.60;;;12.20;99.90;;;;;;5013371;28;20177;-67
2024/01/03 09:00:56;;;;;;;3.53;1.50;;;12.10;99.90;;;;;;5018031;28;20951;-67
2024/01/03 09:03:22;;;;;;;4.93;1.50;;;12.10;99.90;;;;;;5017254;28;20205;-67
2024/01/03 09:05:47;;;;;;;3.90;1.90;;;12.10;99.90;;;;;;5015261;28;20513;-67
2024/01/03 09:08:13;;;;;;;5.27;1.70;;;12.10;99.90;;;;;;5019557;28;20688;-67
2024/01/03 09:10:39;;;;;;;4.90;2.03;;;12.10;99.90;;;;;;5016334;28;20189;-67
2024/01/03 09:13:04;;;;;;;7.17;2.30;;;12.00;99.90;;;;;;5019135;28;20196;-67
2024/01/03 09:15:30;;;;;;;6.17;2.67;;;12.00;99.90;;;;;;5017438;28;20416;-67
2024/01/03 09:17:55;;;;;;;6.13;2.00;;;11.90;99.90;;;;;;5019145;28;20238;-66
2024/01/03 09:20:21;;;;;;;4.03;1.50;;;11.90;99.90;;;;;;5014522;28;20194;-67
2024/01/03 09:22:46;;;;;;;5.50;1.93;;;12.00;99.90;;;;;;5019686;28;20509;-67
2024/01/03 09:25:12;;;;;;;3.63;1.63;;;11.90;99.90;;;;;;5019740;28;20181;-67
2024/01/03 09:27:38;;;;;;;4.63;2.30;;;11.90;99.90;;;;;;5022531;28;20264;-67
2024/01/03 09:30:04;;;;;;;3.60;1.90;;;11.90;99.90;;;;;;5015782;28;20189;-67
2024/01/03 09:32:29;;;;;;;3.10;1.70;;;12.00;99.90;;;;;;5018608;28;20736;-68
2024/01/03 09:34:55;;;;;;;3.43;1.70;;;12.00;99.90;;;;;;5017409;28;20987;-67
2024/01/03 09:37:20;;;;;;;7.43;1.60;;;12.10;99.90;;;;;;5016188;28;20189;-67
2024/01/03 09:39:46;;;;;;;2.20;1.27;;;12.10;99.90;;;;;;5015350;28;20757;-67
2024/01/03 09:42:12;;;;;;;3.30;1.63;;;12.10;99.90;;;;;;5020646;28;20185;-67
2024/01/03 09:44:38;;;;;;;4.03;1.77;;;12.10;99.90;;;;;;5019403;28;20343;-67
2024/01/03 09:47:04;;;;;;;2.30;1.57;;;12.20;99.90;;;;;;5016863;28;21035;-67
2024/01/03 09:49:29;;;;;;;6.17;1.80;;;12.10;99.90;;;;;;5012451;28;20424;-67
2024/01/03 09:51:56;;;;;;;8.17;1.70;;;12.10;99.90;;;;;;5016574;28;20651;-67
2024/01/03 09:54:21;;;;;;;5.30;2.13;;;12.00;99.90;;;;;;5016223;28;20263;-67
2024/01/03 09:56:47;;;;;;;2.73;1.40;;;12.00;99.90;;;;;;5013116;28;20415;-67
2024/01/03 09:59:17;;;;;;;2.60;1.50;;;12.00;99.90;;;;;;5017056;28;20837;-67
2024/01/03 10:01:56;;;;;;;3.10;1.47;;;11.90;99.90;;;;;;5016481;28;20459;-66
2024/01/03 10:04:22;;;;;;;3.27;1.70;;;11.70;99.90;;;;;;5019819;28;20497;-66
2024/01/03 10:06:55;;;;;;;7.17;1.87;;;11.50;99.90;;;;;;5019072;28;20428;-66
2024/01/03 10:09:21;;;;;;;8.80;1.87;;;11.50;99.90;;;;;;5014788;28;20473;-66
2024/01/03 10:11:52;;;;;;;3.03;1.53;;;11.40;99.90;;;;;;5018780;28;20440;-70
2024/01/03 10:14:19;;;;;;;5.40;1.63;;;11.40;99.90;;;;;;5011963;28;20992;-66
2024/01/03 10:16:46;;;;;;;3.07;1.37;;;11.50;99.90;;;;;;5016448;28;20424;-67
2024/01/03 10:19:12;;;;;;;7.00;1.60;;;11.40;99.90;;;;;;5023264;28;21166;-67
2024/01/03 10:21:45;;;;;;;4.00;1.43;;;11.40;99.90;;;;;;5010115;28;20435;-67
2024/01/03 10:24:11;;;;;;;3.60;2.00;;;11.30;99.90;;;;;;5015051;28;20447;-67
2024/01/03 10:26:37;;;;;;;5.33;2.40;;;11.30;99.90;;;;;;5012615;28;21102;-67
2024/01/03 10:29:09;;;;;;;4.10;1.83;;;11.20;99.90;;;;;;5015173;28;20459;-67
2024/01/03 10:31:35;;;;;;;4.00;1.63;;;11.10;99.90;;;;;;5021291;28;20451;-66
2024/01/03 10:34:04;;;;;;;4.10;2.23;;;11.20;99.90;;;;;;5015369;28;20533;-66
2024/01/03 10:36:37;;;;;;;4.80;2.70;;;11.10;99.90;;;;;;5017136;28;20172;-67
2024/01/03 10:39:04;;;;;;;6.23;2.10;;;11.10;99.90;;;;;;5015284;28;20420;-66
2024/01/03 10:41:31;;;;;;;5.53;2.37;;;11.20;99.90;;;;;;5016096;28;20587;-67
2024/01/03 10:44:00;;;;;;;6.30;3.00;;;11.30;99.90;;;;;;5017643;28;20461;-67
2024/01/03 10:46:26;;;;;;;6.07;1.80;;;11.40;99.90;;;;;;5014154;28;20530;-67
2024/01/03 10:48:52;;;;;;;9.17;2.37;;;11.40;99.90;;;;;;5014794;28;20792;-67
2024/01/03 10:51:22;;;;;;;3.20;1.67;;;11.50;99.90;;;;;;5013388;28;20470;-68
2024/01/03 10:53:54;;;;;;;2.87;1.40;;;11.50;99.90;;;;;;5011126;28;20212;-67
2024/01/03 10:56:20;;;;;;;6.67;1.70;;;11.50;99.90;;;;;;5016822;28;20960;-67
2024/01/03 10:58:46;;;;;;;5.33;1.83;;;11.60;99.90;;;;;;5012362;28;20509;-66
2024/01/03 11:01:27;;;;;;;4.53;1.60;;;11.60;99.90;;;;;;5014589;28;20503;-67
2024/01/03 11:04:30;;;;;;;4.77;1.70;;;11.70;99.90;;;;;;5007973;28;20339;-67
2024/01/03 11:07:07;;;;;;;3.47;1.60;;;11.80;99.90;;;;;;5010106;28;20992;-67
2024/01/03 11:09:34;;;;;;;7.93;1.63;;;11.90;99.90;;;;;;5018536;28;20429;-67
2024/01/03 11:12:07;;;;;;;3.57;1.50;;;12.00;99.90;;;;;;5010699;28;20534;-67
2024/01/03 11:14:33;;;;;;;6.43;2.10;;;12.20;99.90;;;;;;5016149;28;20479;-67
2024/01/03 11:17:01;;;;;;;4.97;1.77;;;12.40;99.90;;;;;;5012527;28;20486;-67
2024/01/03 11:19:29;;;;;;;5.40;2.50;;;12.50;99.90;;;;;;5015593;28;20438;-67
2024/01/03 11:21:55;;;;;;;5.30;2.40;;;12.60;99.90;;;;;;5012942;28;20427;-67
2024/01/03 11:24:20;;;;;;;4.20;1.77;;;12.60;99.90;;;;;;5016688;28;20446;-67
2024/01/03 11:26:52;;;;;;;3.17;1.60;;;12.50;99.90;;;;;;5013525;28;20427;-67
2024/01/03 11:32:04;;;;;;;2.43;1.47;;;12.80;99.90;;;;;;5015553;28;20952;-67
2024/01/03 11:34:38;;;;;;;5.00;2.33;;;12.80;99.90;;;;;;5008450;28;20456;-67
2024/01/03 11:37:24;;;;;;;4.83;1.70;;;12.80;99.90;;;;;;5019650;28;20487;-67
2024/01/03 11:39:52;;;;;;;4.90;1.90;;;12.80;99.90;;;;;;5014956;28;20530;-67
2024/01/03 11:42:22;;;;;;;4.00;1.97;;;12.80;99.90;;;;;;5013189;28;20478;-67
2024/01/03 11:45:07;;;;;;;5.13;2.27;;;12.70;99.90;;;;;;5015128;28;20426;-67
2024/01/03 11:47:34;;;;;;;4.50;1.57;;;12.70;99.90;;;;;;5018076;28;20565;-67
2024/01/03 11:50:03;;;;;;;3.77;2.10;;;12.70;99.90;;;;;;5013612;28;20448;-69
2024/01/03 11:52:33;;;;;;;3.77;1.57;;;12.70;99.90;;;;;;5017282;28;20450;-68
2024/01/03 11:55:05;;;;;;;3.30;1.50;;;12.80;99.90;;;;;;5014139;28;20490;-68
2024/01/03 11:57:30;;;;;;;4.53;1.80;;;12.80;99.90;;;;;;5008821;28;20858;-68
2024/01/03 11:59:59;;;;;;;2.87;1.57;;;12.80;99.90;;;;;;5015403;28;20453;-68
2024/01/03 12:02:26;;;;;;;5.07;1.60;;;12.80;99.90;;;;;;5011248;28;20280;-67
2024/01/03 12:05:03;;;;;;;5.33;2.23;;;12.90;99.90;;;;;;5017880;28;20442;-67
2024/01/03 12:07:31;;;;;;;5.63;1.67;;;12.80;99.90;;;;;;5014589;28;20446;-67
2024/01/03 12:09:57;;;;;;;7.63;1.93;;;12.80;99.90;;;;;;5010499;28;20769;-67
2024/01/03 12:12:24;;;;;;;3.40;1.60;;;12.60;99.90;;;;;;5018727;28;20880;-68
2024/01/03 12:14:53;;;;;;;8.43;1.80;;;12.40;99.90;;;;;;5013184;28;20909;-68
2024/01/03 12:17:30;;;;;;;7.10;1.50;;;12.30;99.90;;;;;;5014789;28;20448;-66
2024/01/03 12:20:09;;;;;;;3.77;1.57;;;12.10;99.90;;;;;;5012861;28;20945;-67
2024/01/03 12:22:35;;;;;;;4.00;1.77;;;12.10;99.90;;;;;;5016080;28;20423;-66
2024/01/03 12:25:01;;;;;;;3.90;1.67;;;12.20;99.90;;;;;;5017821;28;20445;-66
2024/01/03 12:27:26;;;;;;;6.33;2.53;;;12.30;99.90;;;;;;5015663;28;20189;-67
2024/01/03 12:30:12;;;;;;;8.87;2.07;;;12.40;99.90;;;;;;5016367;28;20447;-67
2024/01/03 12:32:38;;;;;;;5.83;2.30;;;12.40;99.90;;;;;;5009965;28;20184;-67
2024/01/03 12:35:04;;;;;;;3.27;1.50;;;12.50;99.90;;;;;;5012486;28;21004;-67
2024/01/03 12:37:29;;;;;;;9.50;2.53;;;12.40;99.90;;;;;;5010182;28;20212;-67
2024/01/03 12:39:55;;;;;;;4.00;1.80;;;12.40;99.90;;;;;;5009414;28;20444;-67
2024/01/03 12:42:21;;;;;;;4.43;1.80;;;12.50;99.90;;;;;;5016003;28;20681;-67
2024/01/03 12:44:46;;;;;;;7.07;1.70;;;12.50;99.90;;;;;;5016165;28;20208;-66
2024/01/03 12:47:13;;;;;;;3.37;1.63;;;12.50;99.90;;;;;;5015560;28;20217;-67